Time;durP1;ratioP1;P1;durP2;ratioP2;P2;SDS_P1;SDS_P2;PMS_P1;PMS_P2;Temp;Humidity;BMP_temperature;BMP_pressure;BME280_temperature;BME280_humidity;BME280_pressure;Samples;Min_cycle;Max_cycle;Signal;HPM_P1;HPM_P2
2022/07/18 00:00:02;;;;;;;5.85;5.25;;;18.40;99.90;;;;;;5017001;28;20294;-89
2022/07/18 00:02:28;;;;;;;7.60;5.22;;;18.40;99.90;;;;;;5016974;28;20196;-89
2022/07/18 00:04:56;;;;;;;5.82;5.22;;;18.30;99.90;;;;;;5016473;28;20919;-91
2022/07/18 00:07:23;;;;;;;5.68;4.97;;;18.30;99.90;;;;;;5016747;28;20200;-89
2022/07/18 00:09:50;;;;;;;7.20;5.43;;;18.30;99.90;;;;;;5032970;28;20319;-89
2022/07/18 00:12:17;;;;;;;5.65;5.07;;;18.20;99.90;;;;;;5036272;28;20223;-89
2022/07/18 00:14:45;;;;;;;7.47;5.78;;;18.20;99.90;;;;;;5036387;28;20216;-90
2022/07/18 00:17:13;;;;;;;6.45;5.78;;;18.10;99.90;;;;;;5023277;28;20666;-90
2022/07/18 00:19:41;;;;;;;6.72;5.28;;;18.10;99.90;;;;;;5016649;28;20285;-90
2022/07/18 00:22:08;;;;;;;5.88;5.03;;;18.10;99.90;;;;;;5016475;28;20213;-89
2022/07/18 00:24:37;;;;;;;12.40;6.10;;;18.10;99.90;;;;;;5016593;28;20257;-89
2022/07/18 00:27:07;;;;;;;6.63;5.65;;;18.00;99.90;;;;;;5036157;28;20230;-89
2022/07/18 00:29:35;;;;;;;5.25;4.75;;;18.00;99.90;;;;;;5036339;28;20202;-89
2022/07/18 00:32:02;;;;;;;6.53;5.05;;;18.00;99.90;;;;;;5035417;28;20265;-89
2022/07/18 00:34:31;;;;;;;6.15;5.55;;;18.00;99.90;;;;;;5036749;28;20652;-90
2022/07/18 00:36:58;;;;;;;7.07;5.43;;;17.90;99.90;;;;;;5036820;28;20191;-89
2022/07/18 00:39:25;;;;;;;6.28;5.47;;;17.90;99.90;;;;;;5036421;28;20726;-89
2022/07/18 00:41:52;;;;;;;6.47;5.25;;;17.90;99.90;;;;;;5035958;28;20293;-90
2022/07/18 00:44:21;;;;;;;7.38;5.22;;;17.80;99.90;;;;;;5036700;28;20217;-89
2022/07/18 00:46:49;;;;;;;6.57;5.85;;;17.80;99.90;;;;;;5021907;28;20226;-89
2022/07/18 00:49:16;;;;;;;5.78;5.18;;;17.80;99.90;;;;;;5017127;28;20197;-88
2022/07/18 00:51:45;;;;;;;6.50;4.80;;;17.70;99.90;;;;;;5017261;28;20267;-89
2022/07/18 00:54:12;;;;;;;6.15;5.60;;;17.70;99.90;;;;;;5024704;28;20249;-89
2022/07/18 00:56:39;;;;;;;5.72;5.13;;;17.70;99.90;;;;;;5037066;28;20250;-90
2022/07/18 00:59:06;;;;;;;6.22;5.30;;;17.60;99.90;;;;;;5037019;28;20202;-90
2022/07/18 01:01:47;;;;;;;5.85;4.75;;;17.60;99.90;;;;;;5047150;28;20195;-89
2022/07/18 01:04:16;;;;;;;6.60;5.35;;;17.60;99.90;;;;;;5053148;28;20202;-89
2022/07/18 01:06:43;;;;;;;5.93;5.30;;;17.60;99.90;;;;;;5025059;28;20242;-89
2022/07/18 01:09:11;;;;;;;5.95;4.63;;;17.50;99.90;;;;;;5016883;28;20210;-90
2022/07/18 01:11:38;;;;;;;6.00;5.38;;;17.50;99.90;;;;;;5023300;28;20302;-89
2022/07/18 01:14:07;;;;;;;5.88;5.28;;;17.40;99.90;;;;;;5036073;28;20205;-90
2022/07/18 01:16:34;;;;;;;7.38;5.80;;;17.40;99.90;;;;;;5036545;28;20798;-90
2022/07/18 01:19:01;;;;;;;6.65;5.40;;;17.40;99.90;;;;;;5035833;28;20286;-90
2022/07/18 01:21:30;;;;;;;8.50;6.07;;;17.40;99.90;;;;;;5035153;28;20242;-89
2022/07/18 01:23:57;;;;;;;6.60;5.90;;;17.30;99.90;;;;;;5035848;28;20187;-91
2022/07/18 01:26:24;;;;;;;6.53;5.82;;;17.30;99.90;;;;;;5034067;28;20254;-90
2022/07/18 01:28:52;;;;;;;6.13;5.47;;;17.20;99.90;;;;;;5035327;28;20234;-89
2022/07/18 01:31:18;;;;;;;7.95;6.15;;;17.20;99.90;;;;;;5034641;28;20191;-90
2022/07/18 01:33:45;;;;;;;7.20;5.60;;;17.20;99.90;;;;;;5034748;28;20229;-89
2022/07/18 01:36:13;;;;;;;6.57;5.82;;;17.10;99.90;;;;;;5034691;28;20475;-89
2022/07/18 01:38:41;;;;;;;7.65;6.07;;;17.10;99.90;;;;;;5034670;28;20293;-90
2022/07/18 01:41:08;;;;;;;6.70;6.00;;;17.00;99.90;;;;;;5034687;28;20217;-88
2022/07/18 01:43:37;;;;;;;6.60;5.35;;;17.00;99.90;;;;;;5034645;28;20210;-89
2022/07/18 01:46:05;;;;;;;5.78;5.18;;;17.00;99.90;;;;;;5034830;28;20222;-89
2022/07/18 01:48:32;;;;;;;6.13;5.53;;;16.90;99.90;;;;;;5033827;28;20261;-89
2022/07/18 01:50:59;;;;;;;6.63;5.50;;;16.90;99.90;;;;;;5034475;28;20278;-90
2022/07/18 01:53:26;;;;;;;6.85;5.63;;;16.90;99.90;;;;;;5033291;28;20662;-88
2022/07/18 01:55:54;;;;;;;7.07;5.78;;;16.90;99.90;;;;;;5034689;28;20280;-89
2022/07/18 01:58:21;;;;;;;8.55;6.40;;;16.80;99.90;;;;;;5033999;28;20202;-87
2022/07/18 02:00:48;;;;;;;7.10;5.85;;;16.80;99.90;;;;;;5034304;28;20203;-88
2022/07/18 02:03:15;;;;;;;9.18;5.90;;;16.80;99.90;;;;;;5034541;28;20249;-87
2022/07/18 02:05:42;;;;;;;7.88;6.40;;;16.80;99.90;;;;;;5034072;28;20229;-89
2022/07/18 02:08:09;;;;;;;6.38;5.50;;;16.80;99.90;;;;;;5034331;28;20336;-88
2022/07/18 02:10:36;;;;;;;7.18;5.68;;;16.80;99.90;;;;;;5033537;28;20306;-89
2022/07/18 02:13:06;;;;;;;6.05;5.45;;;16.80;99.90;;;;;;5034530;28;20563;-87
2022/07/18 02:15:33;;;;;;;6.03;5.43;;;16.70;99.90;;;;;;5034464;28;20205;-87
2022/07/18 02:18:00;;;;;;;5.57;4.95;;;16.70;99.90;;;;;;5024021;28;20222;-89
2022/07/18 02:20:27;;;;;;;5.50;4.90;;;16.70;99.90;;;;;;5015391;28;20530;-88
2022/07/18 02:22:54;;;;;;;6.20;5.50;;;16.70;99.90;;;;;;5018979;28;20195;-89
2022/07/18 02:25:21;;;;;;;6.10;5.50;;;16.70;99.90;;;;;;5018764;28;20559;-88
2022/07/18 02:27:48;;;;;;;4.40;3.92;;;16.70;99.90;;;;;;5034774;28;20214;-90
2022/07/18 02:30:16;;;;;;;6.88;5.32;;;16.70;99.90;;;;;;5037883;28;20253;-87
2022/07/18 02:32:43;;;;;;;6.05;5.45;;;16.70;99.90;;;;;;5036374;28;20214;-86
2022/07/18 02:35:10;;;;;;;7.07;5.63;;;16.60;99.90;;;;;;5037382;28;20206;-87
2022/07/18 02:37:40;;;;;;;8.27;5.38;;;16.60;99.90;;;;;;5036598;28;20194;-89
2022/07/18 02:40:09;;;;;;;6.82;5.60;;;16.60;99.90;;;;;;5036831;28;20313;-86
2022/07/18 02:42:36;;;;;;;5.82;5.18;;;16.60;99.90;;;;;;5037463;28;20301;-87
2022/07/18 02:45:04;;;;;;;6.03;4.82;;;16.60;99.90;;;;;;5037494;28;20777;-86
2022/07/18 02:47:32;;;;;;;6.60;5.40;;;16.60;99.90;;;;;;5036677;28;20310;-88
2022/07/18 02:49:59;;;;;;;5.88;4.70;;;16.60;99.90;;;;;;5037234;28;20281;-88
2022/07/18 02:52:26;;;;;;;6.32;5.22;;;16.60;99.90;;;;;;5038387;28;20591;-87
2022/07/18 02:54:53;;;;;;;6.28;5.00;;;16.50;99.90;;;;;;5038436;28;20190;-87
2022/07/18 02:57:20;;;;;;;8.90;4.97;;;16.60;99.90;;;;;;5020261;28;20318;-88
2022/07/18 02:59:47;;;;;;;5.60;4.95;;;16.60;99.90;;;;;;5018153;28;20599;-88
2022/07/18 03:02:14;;;;;;;5.85;5.25;;;16.50;99.90;;;;;;5036995;28;20210;-87
2022/07/18 03:04:42;;;;;;;6.70;4.80;;;16.50;99.90;;;;;;5037763;28;20290;-88
2022/07/18 03:07:09;;;;;;;6.78;4.88;;;16.50;99.90;;;;;;5035060;28;20241;-89
2022/07/18 03:09:36;;;;;;;6.20;4.65;;;16.50;99.90;;;;;;5018518;28;20298;-88
2022/07/18 03:12:03;;;;;;;5.80;4.68;;;16.50;99.90;;;;;;5018463;28;20226;-86
2022/07/18 03:14:30;;;;;;;5.25;4.35;;;16.50;99.90;;;;;;5019586;28;20555;-87
2022/07/18 03:16:57;;;;;;;6.38;5.00;;;16.50;99.90;;;;;;5018864;28;20207;-88
2022/07/18 03:19:25;;;;;;;6.57;4.88;;;16.50;99.90;;;;;;5029588;28;20211;-87
2022/07/18 03:21:53;;;;;;;5.03;4.55;;;16.40;99.90;;;;;;5036181;28;20282;-87
2022/07/18 03:24:25;;;;;;;5.28;4.32;;;16.40;99.90;;;;;;5036973;28;20209;-87
2022/07/18 03:26:52;;;;;;;7.90;5.28;;;16.40;99.90;;;;;;5036697;28;20226;-85
2022/07/18 03:29:19;;;;;;;6.28;5.00;;;16.40;99.90;;;;;;5036972;28;20207;-88
2022/07/18 03:31:46;;;;;;;6.18;4.70;;;16.40;99.90;;;;;;5036597;28;20512;-88
2022/07/18 03:34:13;;;;;;;4.55;3.92;;;16.40;99.90;;;;;;5036592;28;20207;-87
2022/07/18 03:36:41;;;;;;;5.78;4.70;;;16.40;99.90;;;;;;5036151;28;20210;-87
2022/07/18 03:39:12;;;;;;;8.05;4.93;;;16.40;99.90;;;;;;5037204;28;20257;-87
2022/07/18 03:41:40;;;;;;;5.63;4.70;;;16.40;99.90;;;;;;5035918;28;20261;-87
2022/07/18 03:44:07;;;;;;;6.78;4.53;;;16.40;99.90;;;;;;5036780;28;20203;-88
2022/07/18 03:46:34;;;;;;;8.48;5.43;;;16.40;99.90;;;;;;5022597;28;20685;-88
2022/07/18 03:49:01;;;;;;;6.40;4.32;;;16.40;99.90;;;;;;5016729;28;20210;-87
2022/07/18 03:51:28;;;;;;;5.80;4.50;;;16.40;99.90;;;;;;5016656;28;20515;-87
2022/07/18 03:53:55;;;;;;;5.28;4.60;;;16.40;99.90;;;;;;5022129;28;20282;-87
2022/07/18 03:56:23;;;;;;;7.80;4.75;;;16.40;99.90;;;;;;5035940;28;20702;-87
2022/07/18 03:58:50;;;;;;;5.15;4.10;;;16.40;99.90;;;;;;5019741;28;20221;-86
2022/07/18 04:01:18;;;;;;;7.25;4.57;;;16.40;99.90;;;;;;5016888;28;20572;-87
2022/07/18 04:03:44;;;;;;;6.22;4.75;;;16.40;99.90;;;;;;5016800;28;20280;-87
2022/07/18 04:06:11;;;;;;;7.15;4.25;;;16.40;99.90;;;;;;5021075;28;20229;-88
2022/07/18 04:08:38;;;;;;;6.88;4.63;;;16.30;99.90;;;;;;5036304;28;20217;-87
2022/07/18 04:11:05;;;;;;;7.57;4.32;;;16.30;99.90;;;;;;5020389;28;20297;-87
2022/07/18 04:13:34;;;;;;;5.28;4.38;;;16.30;99.90;;;;;;5016413;28;20199;-87
2022/07/18 04:16:01;;;;;;;5.45;4.68;;;16.30;99.90;;;;;;5016532;28;20576;-87
2022/07/18 04:18:28;;;;;;;5.65;4.35;;;16.30;99.90;;;;;;5017415;28;20514;-87
2022/07/18 04:20:55;;;;;;;5.75;4.28;;;16.30;99.90;;;;;;5036136;28;20218;-88
2022/07/18 04:23:21;;;;;;;5.30;4.20;;;16.30;99.90;;;;;;5035861;28;20218;-88
2022/07/18 04:25:48;;;;;;;5.18;4.10;;;16.30;99.90;;;;;;5035999;28;20287;-88
2022/07/18 04:28:16;;;;;;;6.28;4.63;;;16.30;99.90;;;;;;5035878;28;20222;-88
2022/07/18 04:30:45;;;;;;;4.80;4.30;;;16.30;99.90;;;;;;5036129;28;20586;-87
2022/07/18 04:33:12;;;;;;;4.97;4.10;;;16.30;99.90;;;;;;5035943;28;20206;-88
2022/07/18 04:35:41;;;;;;;4.82;3.83;;;16.30;99.90;;;;;;5031438;28;20207;-87
2022/07/18 04:38:10;;;;;;;4.38;3.90;;;16.30;99.90;;;;;;5025500;28;20199;-88
2022/07/18 04:40:38;;;;;;;4.85;4.18;;;16.30;99.90;;;;;;5035862;28;20655;-88
2022/07/18 04:43:05;;;;;;;7.65;4.13;;;16.30;99.90;;;;;;5035368;28;20377;-88
2022/07/18 04:45:32;;;;;;;4.97;3.67;;;16.30;99.90;;;;;;5035396;28;20195;-89
2022/07/18 04:48:01;;;;;;;5.40;4.07;;;16.30;99.90;;;;;;5021873;28;20223;-88
2022/07/18 04:50:29;;;;;;;4.35;3.53;;;16.30;99.90;;;;;;5015922;28;20516;-89
2022/07/18 04:52:57;;;;;;;3.42;3.08;;;16.30;99.90;;;;;;5015433;28;20269;-87
2022/07/18 04:55:26;;;;;;;4.75;3.92;;;16.30;99.90;;;;;;5015371;28;20283;-88
2022/07/18 04:57:53;;;;;;;3.90;3.45;;;16.40;99.90;;;;;;5018448;28;20210;-87
2022/07/18 05:00:22;;;;;;;4.32;3.42;;;16.40;99.90;;;;;;5035264;28;20232;-87
2022/07/18 05:02:50;;;;;;;5.65;3.63;;;16.40;99.90;;;;;;5022679;28;20242;-88
2022/07/18 05:05:20;;;;;;;4.72;4.10;;;16.50;99.90;;;;;;5015786;28;20553;-88
2022/07/18 05:07:49;;;;;;;5.22;3.70;;;16.50;99.90;;;;;;5015260;28;20234;-89
2022/07/18 05:10:17;;;;;;;5.90;3.45;;;16.60;99.90;;;;;;5013734;28;20626;-89
2022/07/18 05:12:46;;;;;;;4.05;3.58;;;16.60;99.90;;;;;;5014932;28;20274;-87
2022/07/18 05:15:16;;;;;;;6.75;4.32;;;16.60;99.90;;;;;;5033414;28;20209;-88
2022/07/18 05:17:43;;;;;;;4.43;3.63;;;16.70;99.90;;;;;;5034067;28;20512;-87
2022/07/18 05:20:12;;;;;;;6.35;4.47;;;16.80;99.90;;;;;;5034793;28;20503;-87
2022/07/18 05:22:41;;;;;;;5.85;3.85;;;16.80;99.90;;;;;;5034373;28;20194;-87
2022/07/18 05:25:09;;;;;;;4.65;3.78;;;16.90;99.90;;;;;;5014890;28;20225;-86
2022/07/18 05:27:37;;;;;;;5.95;3.75;;;17.10;99.90;;;;;;5014904;28;20227;-88
2022/07/18 05:30:07;;;;;;;5.53;3.75;;;17.20;99.90;;;;;;5015392;28;20195;-88
2022/07/18 05:32:34;;;;;;;8.38;4.13;;;17.30;99.90;;;;;;5016642;28;20290;-85
2022/07/18 05:35:02;;;;;;;6.07;3.97;;;17.50;99.90;;;;;;5033616;28;20289;-87
2022/07/18 05:37:29;;;;;;;4.70;3.33;;;17.70;99.90;;;;;;5015300;28;20254;-86
2022/07/18 05:39:57;;;;;;;8.88;3.88;;;17.90;82.10;;;;;;5014649;28;20206;-88
2022/07/18 05:42:24;;;;;;;6.35;3.53;;;18.20;29.20;;;;;;5014575;28;20668;-88
2022/07/18 05:44:51;;;;;;;9.07;3.53;;;18.40;26.60;;;;;;5014804;28;20584;-86
2022/07/18 05:47:17;;;;;;;7.75;4.22;;;18.60;19.40;;;;;;5021725;28;20230;-86
2022/07/18 05:49:44;;;;;;;5.63;3.88;;;18.80;1.00;;;;;;5034513;28;20215;-87
2022/07/18 05:52:11;;;;;;;6.05;3.20;;;18.90;1.00;;;;;;5034466;28;20202;-87
2022/07/18 05:54:38;;;;;;;4.68;2.75;;;19.00;1.00;;;;;;5033572;28;20515;-86
2022/07/18 05:57:07;;;;;;;7.00;3.92;;;19.10;1.00;;;;;;5033175;28;20230;-90
2022/07/18 05:59:33;;;;;;;4.82;3.38;;;19.20;1.00;;;;;;5034260;28;20225;-82
2022/07/18 06:02:00;;;;;;;5.03;3.28;;;19.30;1.00;;;;;;5033825;28;20194;-87
2022/07/18 06:04:27;;;;;;;3.72;2.97;;;19.50;1.00;;;;;;5034248;28;20617;-88
2022/07/18 06:06:54;;;;;;;4.18;3.10;;;19.60;1.00;;;;;;5035599;28;20239;-88
2022/07/18 06:09:21;;;;;;;4.93;3.40;;;19.70;1.00;;;;;;5033639;28;20202;-88
2022/07/18 06:11:48;;;;;;;6.53;4.05;;;20.00;1.00;;;;;;5034063;28;20201;-86
2022/07/18 06:14:16;;;;;;;4.90;3.28;;;20.30;1.00;;;;;;5034159;28;20207;-86
2022/07/18 06:16:43;;;;;;;5.68;3.25;;;20.70;1.00;;;;;;5034032;28;20293;-89
2022/07/18 06:19:10;;;;;;;6.70;4.13;;;21.20;1.00;;;;;;5034773;28;20679;-87
2022/07/18 06:21:38;;;;;;;6.35;3.60;;;21.60;1.00;;;;;;5034296;28;20197;-88
2022/07/18 06:24:06;;;;;;;5.35;3.20;;;22.00;99.90;;;;;;5034284;28;20285;-89
2022/07/18 06:26:33;;;;;;;5.82;3.53;;;22.30;1.00;;;;;;5034323;28;20252;-88
2022/07/18 06:28:59;;;;;;;6.68;3.85;;;22.50;99.90;;;;;;5034401;28;20286;-86
2022/07/18 06:31:28;;;;;;;5.90;3.75;;;22.60;1.00;;;;;;5024944;28;20195;-86
2022/07/18 06:33:55;;;;;;;6.20;3.28;;;22.80;1.00;;;;;;5014799;28;20211;-90
2022/07/18 06:36:23;;;;;;;5.10;3.38;;;22.90;99.90;;;;;;5013559;28;20217;-89
2022/07/18 06:38:50;;;;;;;6.38;3.35;;;23.00;1.00;;;;;;5019488;28;20484;-89
2022/07/18 06:41:21;;;;;;;6.13;3.05;;;23.20;99.90;;;;;;5031166;28;20213;-87
2022/07/18 06:43:48;;;;;;;5.28;3.67;;;23.60;1.00;;;;;;5031495;28;20241;-87
2022/07/18 06:46:15;;;;;;;5.15;3.90;;;24.00;99.90;;;;;;5028021;28;20211;-88
2022/07/18 06:48:43;;;;;;;7.57;4.00;;;24.30;99.90;;;;;;5015295;28;20663;-91
2022/07/18 06:51:10;;;;;;;7.90;3.88;;;24.80;1.00;;;;;;5023289;28;20604;-88
2022/07/18 06:53:37;;;;;;;5.68;3.55;;;25.10;99.90;;;;;;5025005;28;20207;-87
2022/07/18 06:56:05;;;;;;;7.70;3.63;;;25.40;99.90;;;;;;5027519;28;20230;-88
2022/07/18 06:58:33;;;;;;;4.75;3.63;;;25.70;99.90;;;;;;5014357;28;20266;-85
2022/07/18 07:01:00;;;;;;;9.23;3.78;;;25.80;1.00;;;;;;5027694;28;20199;-86
2022/07/18 07:03:27;;;;;;;5.15;3.40;;;25.90;1.00;;;;;;5025084;28;20196;-85
2022/07/18 07:05:56;;;;;;;6.68;3.25;;;25.70;1.00;;;;;;5031880;28;20595;-87
2022/07/18 07:08:22;;;;;;;6.38;3.15;;;25.50;99.90;;;;;;5036862;28;20223;-85
2022/07/18 07:10:49;;;;;;;11.07;4.30;;;25.30;1.00;;;;;;5035631;28;20210;-85
2022/07/18 07:13:16;;;;;;;8.40;3.47;;;25.10;1.00;;;;;;5036391;28;20203;-87
2022/07/18 07:15:43;;;;;;;7.68;3.50;;;24.90;99.90;;;;;;5029946;28;20730;-85
2022/07/18 07:18:11;;;;;;;8.57;3.58;;;24.80;1.00;;;;;;5016513;28;20195;-83
2022/07/18 07:20:38;;;;;;;7.15;3.72;;;24.90;1.00;;;;;;5017808;28;20298;-85
2022/07/18 07:23:08;;;;;;;9.32;4.55;;;25.10;1.00;;;;;;5017874;28;20506;-85
2022/07/18 07:25:36;;;;;;;5.15;3.30;;;25.30;99.90;;;;;;5023127;28;20261;-85
2022/07/18 07:28:03;;;;;;;3.88;3.13;;;25.40;99.90;;;;;;5035398;28;20668;-85
2022/07/18 07:30:31;;;;;;;7.20;3.70;;;25.80;1.00;;;;;;5036374;28;20194;-85
2022/07/18 07:32:58;;;;;;;6.18;3.58;;;26.30;1.00;;;;;;5043440;28;20282;-85
2022/07/18 07:35:25;;;;;;;4.20;3.10;;;26.60;1.00;;;;;;5048361;28;20302;-81
2022/07/18 07:37:53;;;;;;;4.80;3.25;;;26.60;1.00;;;;;;5041578;28;20244;-88
2022/07/18 07:40:23;;;;;;;3.80;3.00;;;26.60;1.00;;;;;;5038782;28;20199;-81
2022/07/18 07:42:51;;;;;;;5.78;2.97;;;26.60;1.00;;;;;;5037448;28;20234;-85
2022/07/18 07:45:19;;;;;;;5.20;3.03;;;26.90;1.00;;;;;;5048220;28;20220;-83
2022/07/18 07:47:46;;;;;;;8.65;3.50;;;27.20;1.00;;;;;;5050190;28;20225;-85
2022/07/18 07:50:15;;;;;;;6.53;3.35;;;27.50;1.00;;;;;;5049399;28;20191;-89
2022/07/18 07:52:42;;;;;;;5.55;2.78;;;27.70;1.00;;;;;;5046911;28;20213;-82
2022/07/18 07:55:09;;;;;;;6.10;3.30;;;28.20;1.00;;;;;;5030092;28;20195;-86
2022/07/18 07:57:37;;;;;;;5.60;3.00;;;28.30;1.00;;;;;;5023013;28;20219;-85
2022/07/18 08:00:08;;;;;;;9.27;3.58;;;28.70;1.00;;;;;;5033957;28;20214;-84
2022/07/18 08:02:34;;;;;;;5.00;2.75;;;28.80;1.00;;;;;;5019342;28;20249;-88
2022/07/18 08:05:02;;;;;;;6.47;3.22;;;28.80;1.00;;;;;;5040337;28;20213;-86
2022/07/18 08:07:29;;;;;;;4.80;2.80;;;28.80;1.00;;;;;;5040015;28;20227;-86
2022/07/18 08:09:56;;;;;;;4.18;2.40;;;28.80;1.00;;;;;;5039730;28;20202;-83
2022/07/18 08:12:23;;;;;;;5.28;2.90;;;28.70;1.00;;;;;;5039522;28;20289;-89
2022/07/18 08:14:51;;;;;;;4.90;2.90;;;28.40;1.00;;;;;;5039717;28;20206;-88
2022/07/18 08:17:18;;;;;;;4.70;2.85;;;28.40;1.00;;;;;;5044672;28;20198;-84
2022/07/18 08:19:45;;;;;;;5.40;3.08;;;28.50;1.00;;;;;;5039109;28;20199;-85
2022/07/18 08:22:12;;;;;;;6.78;3.10;;;28.40;99.90;;;;;;5034896;28;20207;-87
2022/07/18 08:24:39;;;;;;;7.25;3.33;;;28.20;99.90;;;;;;5033738;28;20273;-87
2022/07/18 08:27:06;;;;;;;4.03;2.70;;;27.90;99.90;;;;;;5033621;28;20682;-84
2022/07/18 08:29:33;;;;;;;3.83;2.70;;;27.70;99.90;;;;;;5034670;28;20236;-87
2022/07/18 08:32:01;;;;;;;6.40;2.92;;;27.50;99.90;;;;;;5034418;28;20375;-88
2022/07/18 08:34:28;;;;;;;4.38;2.80;;;27.30;99.90;;;;;;5034292;28;20221;-85
2022/07/18 08:36:55;;;;;;;4.97;2.80;;;27.20;99.90;;;;;;5036135;28;20203;-89
2022/07/18 08:39:22;;;;;;;7.07;3.28;;;27.00;1.00;;;;;;5034896;28;20199;-89
2022/07/18 08:41:51;;;;;;;3.42;2.67;;;26.70;1.00;;;;;;5035695;28;20308;-87
2022/07/18 08:44:19;;;;;;;6.95;2.80;;;26.60;1.00;;;;;;5034661;28;20227;-84
2022/07/18 08:46:50;;;;;;;3.75;2.80;;;26.40;1.00;;;;;;5034084;28;20286;-85
2022/07/18 08:49:19;;;;;;;5.50;3.03;;;26.50;1.00;;;;;;5034837;28;20223;-86
2022/07/18 08:51:46;;;;;;;4.65;2.88;;;26.70;1.00;;;;;;5035349;28;20214;-86
2022/07/18 08:54:14;;;;;;;4.18;2.70;;;27.30;1.00;;;;;;5034788;28;20229;-88
2022/07/18 08:56:41;;;;;;;4.75;2.90;;;27.80;1.00;;;;;;5035619;28;20324;-88
2022/07/18 08:59:08;;;;;;;6.28;3.03;;;28.30;1.00;;;;;;5034669;28;20221;-87
2022/07/18 09:01:35;;;;;;;7.32;2.95;;;28.90;99.90;;;;;;5035625;28;20562;-87
2022/07/18 09:04:19;;;;;;;6.03;3.17;;;29.40;99.90;;;;;;5035715;28;20206;-87
2022/07/18 09:06:50;;;;;;;5.28;3.17;;;29.60;99.90;;;;;;5034374;28;20230;-90
2022/07/18 09:09:18;;;;;;;5.07;3.08;;;29.60;99.90;;;;;;5035575;28;20222;-89
2022/07/18 09:11:56;;;;;;;8.40;3.20;;;29.40;99.90;;;;;;5033909;28;20209;-89
2022/07/18 09:14:31;;;;;;;6.72;2.85;;;29.70;99.90;;;;;;5034402;28;20201;-85
2022/07/18 09:17:04;;;;;;;7.38;3.47;;;30.10;99.90;;;;;;5034521;28;20289;-85
2022/07/18 09:19:31;;;;;;;4.75;2.17;;;30.40;99.90;;;;;;5023708;28;20199;-88
2022/07/18 09:22:18;;;;;;;5.22;2.35;;;30.90;99.90;;;;;;5015005;28;20290;-85
2022/07/18 09:24:58;;;;;;;4.70;2.85;;;31.30;99.90;;;;;;5014615;28;20594;-87
2022/07/18 09:27:27;;;;;;;7.57;2.97;;;31.40;99.90;;;;;;5014301;28;20282;-90
2022/07/18 09:30:28;;;;;;;4.22;2.70;;;31.20;99.90;;;;;;5034169;28;20225;-86
2022/07/18 09:33:07;;;;;;;6.80;2.60;;;31.70;99.90;;;;;;5033442;28;20373;-88
2022/07/18 09:35:36;;;;;;;5.78;2.42;;;32.00;99.90;;;;;;5033340;28;20268;-85
2022/07/18 09:38:07;;;;;;;4.60;2.55;;;32.30;99.90;;;;;;5032089;28;20202;-85
2022/07/18 09:40:36;;;;;;;4.25;2.40;;;32.60;99.90;;;;;;5032860;28;20199;-85
2022/07/18 09:43:05;;;;;;;4.70;1.95;;;32.70;99.90;;;;;;5033877;28;20214;-84
2022/07/18 09:45:33;;;;;;;4.18;2.30;;;32.80;99.90;;;;;;5032475;28;20505;-83
2022/07/18 09:48:02;;;;;;;4.60;2.45;;;32.90;99.90;;;;;;5012812;28;20255;-87
2022/07/18 09:50:32;;;;;;;4.75;2.50;;;33.00;99.90;;;;;;5013951;28;20630;-87
2022/07/18 09:53:06;;;;;;;3.90;1.88;;;33.00;99.90;;;;;;5020857;28;20703;-88
2022/07/18 09:55:34;;;;;;;4.22;2.45;;;33.20;99.90;;;;;;5032894;28;20245;-88
2022/07/18 09:58:04;;;;;;;3.55;2.10;;;33.40;99.90;;;;;;5019417;28;20207;-87
2022/07/18 10:00:35;;;;;;;3.88;2.25;;;33.60;99.90;;;;;;5022786;28;20507;-86
2022/07/18 10:03:03;;;;;;;4.57;1.92;;;33.20;99.90;;;;;;5033451;28;20524;-88
2022/07/18 10:05:32;;;;;;;4.88;2.83;;;33.10;99.90;;;;;;5030365;28;20195;-89
2022/07/18 10:07:59;;;;;;;7.72;2.75;;;33.40;99.90;;;;;;5029512;28;20199;-88
2022/07/18 10:10:30;;;;;;;6.63;2.63;;;33.20;99.90;;;;;;5026270;28;20213;-90
2022/07/18 10:12:58;;;;;;;2.10;1.90;;;33.00;99.90;;;;;;5030485;28;20231;-89
2022/07/18 10:18:02;;;;;;;5.57;2.33;;;33.50;99.90;;;;;;5438996;23;20245;-89
2022/07/18 10:20:33;;;;;;;2.42;2.10;;;33.90;99.90;;;;;;5025184;28;20277;-89
2022/07/18 10:23:08;;;;;;;3.60;2.70;;;34.10;99.90;;;;;;5029947;28;20247;-90
2022/07/18 10:25:37;;;;;;;4.28;2.08;;;33.80;99.90;;;;;;5016438;28;20199;-88
2022/07/18 10:28:09;;;;;;;4.10;2.30;;;34.00;99.90;;;;;;5015102;28;20195;-84
2022/07/18 10:30:39;;;;;;;4.38;2.20;;;34.30;99.90;;;;;;5014604;28;20203;-84
2022/07/18 10:33:39;;;;;;;3.75;2.17;;;34.40;99.90;;;;;;5014699;28;20261;-88
2022/07/18 10:36:10;;;;;;;4.00;2.53;;;34.80;99.90;;;;;;5014541;28;20218;-88
2022/07/18 10:38:37;;;;;;;3.30;2.10;;;34.90;99.90;;;;;;5014917;28;20215;-87
2022/07/18 10:41:11;;;;;;;2.63;1.98;;;35.00;99.90;;;;;;5033319;28;20209;-84
2022/07/18 10:43:46;;;;;;;4.15;2.40;;;35.00;99.90;;;;;;5018380;28;20223;-88
2022/07/18 10:46:14;;;;;;;2.28;2.00;;;35.00;99.90;;;;;;5016151;28;20217;-89
2022/07/18 10:48:58;;;;;;;3.92;2.20;;;35.10;99.90;;;;;;5017042;28;20199;-87
2022/07/18 10:51:34;;;;;;;7.55;2.22;;;35.00;99.90;;;;;;5017474;28;20282;-89
2022/07/18 10:54:13;;;;;;;2.70;1.83;;;35.10;99.90;;;;;;5016930;28;20209;-88
2022/07/18 10:57:13;;;;;;;3.10;2.10;;;35.10;99.90;;;;;;5018175;28;20195;-88
2022/07/18 11:00:07;;;;;;;5.85;2.42;;;35.20;99.90;;;;;;5016950;28;20274;-89
2022/07/18 11:02:41;;;;;;;3.15;1.90;;;35.20;99.90;;;;;;5017493;28;20204;-84
2022/07/18 11:05:37;;;;;;;5.40;2.42;;;35.00;99.90;;;;;;5017025;28;20498;-88
2022/07/18 11:08:28;;;;;;;5.75;2.10;;;35.00;99.90;;;;;;5016884;28;20273;-87
2022/07/18 11:11:07;;;;;;;3.17;1.67;;;35.00;99.90;;;;;;4997138;28;20207;-88
2022/07/18 11:13:37;;;;;;;3.40;1.92;;;35.10;99.90;;;;;;5016873;28;20218;-88
2022/07/18 11:16:06;;;;;;;4.80;1.90;;;35.20;99.90;;;;;;5017118;28;20307;-87
2022/07/18 11:18:54;;;;;;;4.65;1.60;;;35.30;99.90;;;;;;5016971;28;20322;-88
2022/07/18 11:21:23;;;;;;;3.10;2.13;;;35.30;99.90;;;;;;5016575;28;20211;-87
2022/07/18 11:23:52;;;;;;;3.40;1.70;;;35.50;99.90;;;;;;5017580;28;20567;-88
2022/07/18 11:26:22;;;;;;;5.32;1.98;;;35.60;99.90;;;;;;5017149;28;20210;-88
2022/07/18 11:28:58;;;;;;;3.83;1.83;;;35.80;99.90;;;;;;5017058;28;20555;-86
2022/07/18 11:31:28;;;;;;;5.45;2.92;;;36.00;99.90;;;;;;5007908;28;20210;-86
2022/07/18 11:33:56;;;;;;;4.35;2.30;;;36.20;99.90;;;;;;4997120;28;20204;-83
2022/07/18 11:36:30;;;;;;;3.72;2.10;;;36.40;99.90;;;;;;5012273;28;20203;-86
2022/07/18 11:38:58;;;;;;;7.43;2.47;;;36.30;99.90;;;;;;5016416;28;20221;-88
2022/07/18 11:41:25;;;;;;;2.63;2.13;;;36.40;99.90;;;;;;5016396;28;20226;-87
2022/07/18 11:43:55;;;;;;;3.38;2.58;;;36.40;99.90;;;;;;5015746;28;20203;-88
2022/07/18 11:46:23;;;;;;;3.22;2.20;;;36.40;99.90;;;;;;5013808;28;20215;-89
2022/07/18 11:49:00;;;;;;;4.07;1.95;;;36.20;99.90;;;;;;5015929;28;20235;-86
2022/07/18 11:51:38;;;;;;;3.95;2.10;;;36.00;99.90;;;;;;5016374;28;20286;-87
2022/07/18 11:54:12;;;;;;;5.55;2.22;;;36.00;99.90;;;;;;5014627;28;20207;-87
2022/07/18 11:56:52;;;;;;;4.72;2.20;;;36.00;99.90;;;;;;5016649;28;20211;-87
2022/07/18 11:59:36;;;;;;;4.45;2.08;;;35.90;99.90;;;;;;5016115;28;20227;-87
2022/07/18 12:02:06;;;;;;;5.53;2.10;;;36.00;99.90;;;;;;5013904;28;20234;-88
2022/07/18 12:04:38;;;;;;;3.72;2.15;;;36.00;99.90;;;;;;5015427;28;20611;-87
2022/07/18 12:07:21;;;;;;;3.88;2.15;;;36.10;99.90;;;;;;5017358;28;20631;-84
2022/07/18 12:09:53;;;;;;;3.88;2.20;;;36.00;99.90;;;;;;5016206;28;20199;-86
2022/07/18 12:12:25;;;;;;;3.80;1.92;;;35.90;99.90;;;;;;5016440;28;20273;-87
2022/07/18 12:15:03;;;;;;;3.42;1.90;;;35.90;99.90;;;;;;5013238;28;20212;-86
2022/07/18 12:17:44;;;;;;;4.60;1.90;;;35.60;99.90;;;;;;4996619;28;20242;-88
2022/07/18 12:20:16;;;;;;;3.13;2.20;;;35.70;99.90;;;;;;5004930;28;20231;-87
2022/07/18 12:23:07;;;;;;;2.50;1.70;;;36.00;99.90;;;;;;5016096;28;20195;-87
2022/07/18 12:25:39;;;;;;;2.90;2.42;;;36.10;99.90;;;;;;5015575;28;20203;-86
2022/07/18 12:28:16;;;;;;;2.80;2.20;;;36.20;99.90;;;;;;5016100;28;20191;-87
2022/07/18 12:30:45;;;;;;;2.88;1.95;;;36.30;99.90;;;;;;5014977;28;20676;-87
2022/07/18 12:33:13;;;;;;;3.05;2.10;;;36.30;99.90;;;;;;5014708;28;20207;-88
2022/07/18 12:35:40;;;;;;;3.00;2.40;;;36.40;99.90;;;;;;5015468;28;20275;-87
2022/07/18 12:38:10;;;;;;;4.15;2.35;;;36.40;99.90;;;;;;5015092;28;20683;-87
2022/07/18 12:40:44;;;;;;;3.97;2.55;;;36.20;99.90;;;;;;5015016;28;20227;-88
2022/07/18 12:43:12;;;;;;;4.47;3.63;;;36.20;99.90;;;;;;5014212;28;20273;-87
2022/07/18 12:45:40;;;;;;;7.38;4.10;;;35.90;99.90;;;;;;5014749;28;20529;-85
2022/07/18 12:48:11;;;;;;;4.05;3.40;;;36.00;99.90;;;;;;5014717;28;20199;-87
2022/07/18 12:50:39;;;;;;;5.03;2.60;;;35.90;99.90;;;;;;5015007;28;20294;-88
2022/07/18 12:53:06;;;;;;;3.90;2.92;;;36.00;99.90;;;;;;5015255;28;20719;-87
2022/07/18 12:55:33;;;;;;;6.38;3.13;;;35.90;99.90;;;;;;5015052;28;20221;-86
2022/07/18 12:58:05;;;;;;;5.15;3.83;;;35.80;99.90;;;;;;5012783;28;20211;-88
2022/07/18 13:00:37;;;;;;;5.13;3.78;;;35.80;99.90;;;;;;5014921;28;20215;-87